createdAt,value
2019-01-10T00:01:29.155Z,101401.52
2019-01-10T00:03:59.107Z,101402.30
2019-01-10T00:06:29.008Z,101402.75
2019-01-10T00:08:59.390Z,101411.04
2019-01-10T00:11:29.925Z,101415.98
2019-01-10T00:14:01.131Z,101411.36
2019-01-10T00:16:32.754Z,101410.94
2019-01-10T00:19:02.693Z,101412.97
2019-01-10T00:21:33.079Z,101416.14
2019-01-10T00:24:06.429Z,101427.73
2019-01-10T00:26:37.662Z,101431.91
2019-01-10T00:29:07.852Z,101417.94
2019-01-10T00:31:37.772Z,101432.67
2019-01-10T00:34:07.743Z,101430.88
2019-01-10T00:36:37.698Z,101434.10
2019-01-10T00:39:08.602Z,101441.13
2019-01-10T00:41:38.507Z,101440.87
2019-01-10T00:44:08.670Z,101456.05
2019-01-10T00:46:38.668Z,101450.09
2019-01-10T00:49:08.567Z,101443.36
2019-01-10T00:51:38.464Z,101442.30
2019-01-10T00:54:08.348Z,101445.80
2019-01-10T00:56:38.269Z,101455.13
2019-01-10T00:59:08.148Z,101455.27
2019-01-10T01:01:38.054Z,101460.52
2019-01-10T01:04:08.107Z,101458.28
2019-01-10T01:06:38.072Z,101466.47
2019-01-10T01:09:09.298Z,101463.33
2019-01-10T01:11:39.275Z,101470.18
2019-01-10T01:14:09.243Z,101475.18
2019-01-10T01:16:39.477Z,101484.80
2019-01-10T01:19:09.453Z,101493.18
2019-01-10T01:21:39.456Z,101494.86
2019-01-10T01:24:09.458Z,101503.26
2019-01-10T01:26:39.477Z,101506.03
2019-01-10T01:29:09.707Z,101500.72
2019-01-10T01:31:39.917Z,101509.17
2019-01-10T01:34:09.859Z,101515.08
2019-01-10T01:36:39.753Z,101518.38
2019-01-10T01:39:10.226Z,101507.78
2019-01-10T01:41:40.514Z,101522.20
2019-01-10T01:44:10.500Z,101529.28
2019-01-10T01:46:40.487Z,101529.16
2019-01-10T01:49:10.377Z,101539.66
2019-01-10T01:51:40.584Z,101528.09
2019-01-10T01:54:10.550Z,101545.49
2019-01-10T01:56:40.517Z,101548.48
2019-01-10T01:59:11.051Z,101550.70
2019-01-10T02:01:41.257Z,101563.17
2019-01-10T02:04:11.237Z,101554.03
2019-01-10T02:06:41.186Z,101561.66
2019-01-10T02:09:11.080Z,101576.04
2019-01-10T02:11:41.124Z,101571.40
2019-01-10T02:14:11.106Z,101571.33
2019-01-10T02:16:41.076Z,101581.91
2019-01-10T02:19:10.970Z,101580.80
2019-01-10T02:21:40.933Z,101586.06
2019-01-10T02:24:10.894Z,101581.51
2019-01-10T02:26:40.826Z,101582.31
2019-01-10T02:29:11.060Z,101583.00
2019-01-10T02:31:41.322Z,101589.66
2019-01-10T02:34:11.461Z,101587.89
2019-01-10T02:36:41.415Z,101593.28
2019-01-10T02:39:11.542Z,101589.51
2019-01-10T02:41:41.692Z,101593.39
2019-01-10T02:44:11.567Z,101605.78
2019-01-10T02:46:41.486Z,101602.45
2019-01-10T02:49:11.367Z,101605.52
2019-01-10T02:51:41.252Z,101609.58
2019-01-10T02:54:11.130Z,101625.55
2019-01-10T02:56:41.096Z,101614.28
2019-01-10T02:59:11.120Z,101610.56
2019-01-10T03:01:41.000Z,101612.14
2019-01-10T03:04:11.039Z,101618.12
2019-01-10T03:06:40.921Z,101612.34
2019-01-10T03:09:11.472Z,101619.44
2019-01-10T03:11:41.589Z,101613.64
2019-01-10T03:14:11.466Z,101619.09
2019-01-10T03:16:41.608Z,101621.95
2019-01-10T03:19:11.571Z,101623.66
2019-01-10T03:21:41.458Z,101631.13
2019-01-10T03:24:11.373Z,101626.83
2019-01-10T03:26:41.253Z,101629.60
2019-01-10T03:29:11.690Z,101637.80
2019-01-10T03:31:42.028Z,101630.78
2019-01-10T03:34:11.990Z,101618.33
2019-01-10T03:36:41.876Z,101632.92
2019-01-10T03:39:11.915Z,101630.45
2019-01-10T03:41:41.816Z,101633.63
2019-01-10T03:44:11.954Z,101634.80
2019-01-10T03:46:41.872Z,101632.16
2019-01-10T03:49:11.997Z,101633.56
2019-01-10T03:51:42.124Z,101635.67
2019-01-10T03:54:12.017Z,101638.79
2019-01-10T03:56:41.917Z,101643.41
2019-01-10T03:59:11.791Z,101658.98
2019-01-10T04:01:41.651Z,101642.30
2019-01-10T04:04:11.673Z,101637.52
2019-01-10T04:06:41.561Z,101636.84
2019-01-10T04:09:11.524Z,101639.45
2019-01-10T04:11:41.420Z,101645.71
2019-01-10T04:14:11.349Z,101641.06
2019-01-10T04:16:41.230Z,101650.44
2019-01-10T04:19:11.207Z,101652.69
2019-01-10T04:21:41.424Z,101652.22
2019-01-10T04:24:11.689Z,101658.22
2019-01-10T04:26:41.633Z,101654.64
2019-01-10T04:29:11.501Z,101658.42
2019-01-10T04:31:41.384Z,101657.28
2019-01-10T04:34:11.262Z,101662.80
2019-01-10T04:36:41.139Z,101667.53
2019-01-10T04:39:11.004Z,101663.63
2019-01-10T04:41:40.901Z,101664.02
2019-01-10T04:44:10.859Z,101675.70
2019-01-10T04:46:40.746Z,101670.74
2019-01-10T04:49:10.631Z,101670.30
2019-01-10T04:51:40.739Z,101673.79
2019-01-10T04:54:10.624Z,101675.41
2019-01-10T04:56:40.498Z,101673.45
2019-01-10T04:59:12.059Z,101685.81
2019-01-10T05:01:42.213Z,101685.06
2019-01-10T05:04:12.098Z,101681.82
2019-01-10T05:06:41.981Z,101688.13
2019-01-10T05:09:11.862Z,101698.88
2019-01-10T05:11:41.752Z,101696.28
2019-01-10T05:14:16.517Z,101703.31
2019-01-10T05:16:43.284Z,101698.34
2019-01-10T05:19:13.488Z,101698.82
2019-01-10T05:21:43.607Z,101702.03
2019-01-10T05:24:13.713Z,101709.91
2019-01-10T05:26:43.611Z,101703.55
2019-01-10T05:29:13.471Z,101709.39
2019-01-10T05:31:43.363Z,101720.25
2019-01-10T05:34:13.227Z,101726.13
2019-01-10T05:36:43.119Z,101720.44
2019-01-10T05:39:13.010Z,101739.89
2019-01-10T05:41:42.916Z,101734.45
2019-01-10T05:44:12.828Z,101731.64
2019-01-10T05:46:48.340Z,101736.33
2019-01-10T05:49:14.465Z,101740.18
2019-01-10T05:51:44.362Z,101741.17
2019-01-10T05:54:14.624Z,101742.46
2019-01-10T05:56:44.633Z,101748.34
2019-01-10T05:59:14.773Z,101748.46
2019-01-10T06:01:44.664Z,101748.58
2019-01-10T06:04:14.592Z,101753.61
2019-01-10T06:06:44.557Z,101758.05
2019-01-10T06:09:14.500Z,101764.41
2019-01-10T06:11:44.710Z,101769.89
2019-01-10T06:14:14.632Z,101768.46
2019-01-10T06:16:45.235Z,101773.16
2019-01-10T06:19:15.485Z,101777.19
2019-01-10T06:21:45.429Z,101780.42
2019-01-10T06:24:15.415Z,101788.12
2019-01-10T06:26:45.727Z,101789.94
2019-01-10T06:29:15.796Z,101798.08
2019-01-10T06:31:45.929Z,101796.91
2019-01-10T06:34:15.891Z,101801.02
2019-01-10T06:36:45.886Z,101793.61
2019-01-10T06:39:18.390Z,101806.41
2019-01-10T06:41:47.583Z,101802.02
2019-01-10T06:44:17.714Z,101804.83
2019-01-10T06:46:47.679Z,101813.62
2019-01-10T06:49:18.209Z,101817.06
2019-01-10T06:51:48.119Z,101821.14
2019-01-10T06:54:18.022Z,101828.71
2019-01-10T06:56:47.959Z,101825.83
2019-01-10T06:59:18.066Z,101820.29
2019-01-10T07:01:47.949Z,101827.14
2019-01-10T07:04:18.270Z,101823.69
2019-01-10T07:06:48.404Z,101829.75
2019-01-10T07:09:18.338Z,101826.06
2019-01-10T07:11:48.251Z,101830.73
2019-01-10T07:14:18.239Z,101835.73
2019-01-10T07:16:53.547Z,101835.83
2019-01-10T07:19:48.186Z,101838.11
2019-01-10T07:22:19.317Z,101841.22
2019-01-10T07:24:56.404Z,101846.31
2019-01-10T07:27:26.384Z,101840.44
2019-01-10T07:29:59.530Z,101844.73
2019-01-10T07:32:29.749Z,101851.47
2019-01-10T07:35:02.037Z,101854.56
2019-01-10T07:37:31.931Z,101855.04
2019-01-10T07:40:01.982Z,101859.70
2019-01-10T07:42:35.205Z,101858.12
2019-01-10T07:45:19.050Z,101866.05
2019-01-10T07:47:49.858Z,101871.61
2019-01-10T07:50:31.751Z,101880.02
2019-01-10T07:53:02.205Z,101885.77
2019-01-10T07:55:32.173Z,101883.33
2019-01-10T07:58:02.066Z,101892.28
2019-01-10T08:00:32.160Z,101895.84
2019-01-10T08:03:02.171Z,101889.73
2019-01-10T08:05:32.039Z,101893.22
2019-01-10T08:08:02.118Z,101897.48
2019-01-10T08:10:32.000Z,101897.19
2019-01-10T08:13:01.954Z,101902.29
2019-01-10T08:15:31.854Z,101911.09
2019-01-10T08:18:01.949Z,101913.91
2019-01-10T08:20:31.991Z,101925.09
2019-01-10T08:23:01.976Z,101926.75
2019-01-10T08:25:32.295Z,101917.73
2019-01-10T08:28:02.507Z,101940.31
2019-01-10T08:30:32.684Z,101935.14
2019-01-10T08:33:02.706Z,101940.20
2019-01-10T08:35:33.036Z,101942.37
2019-01-10T08:38:04.081Z,101953.84
2019-01-10T08:40:34.794Z,101945.59
2019-01-10T08:43:05.651Z,101942.20
2019-01-10T08:45:35.661Z,101950.81
2019-01-10T08:48:06.527Z,101945.51
2019-01-10T08:50:36.716Z,101959.49
2019-01-10T08:53:06.957Z,101957.15
2019-01-10T08:55:37.132Z,101948.44
2019-01-10T08:58:07.194Z,101952.86
2019-01-10T09:00:37.096Z,101964.19
2019-01-10T09:03:07.032Z,101957.73
2019-01-10T09:05:37.460Z,101962.94
2019-01-10T09:08:07.464Z,101967.50
2019-01-10T09:10:37.671Z,101973.58
2019-01-10T09:13:07.977Z,101966.06
2019-01-10T09:15:37.866Z,101966.55
2019-01-10T09:18:08.561Z,101970.34
2019-01-10T09:20:38.623Z,101969.37
2019-01-10T09:23:08.619Z,101972.80
2019-01-10T09:25:38.624Z,101977.91
2019-01-10T09:28:08.704Z,101976.31
2019-01-10T09:30:38.829Z,101977.01
2019-01-10T09:33:08.874Z,101983.18
2019-01-10T09:35:38.763Z,101985.52
2019-01-10T09:38:08.835Z,101979.17
2019-01-10T09:40:38.835Z,101978.58
2019-01-10T09:43:08.897Z,101988.06
2019-01-10T09:45:43.483Z,101992.36
2019-01-10T09:48:10.578Z,101988.76
2019-01-10T09:50:40.526Z,101996.84
2019-01-10T09:53:10.548Z,101998.23
2019-01-10T09:55:40.472Z,101998.33
2019-01-10T09:58:10.384Z,102006.00
2019-01-10T10:00:40.375Z,102001.34
2019-01-10T10:03:10.635Z,102004.89
2019-01-10T10:05:40.545Z,102011.61
2019-01-10T10:08:10.509Z,102021.95
2019-01-10T10:10:40.999Z,102006.55
2019-01-10T10:13:11.245Z,102013.37
2019-01-10T10:15:41.175Z,102014.56
2019-01-10T10:18:11.077Z,102013.51
2019-01-10T10:20:41.055Z,102014.44
2019-01-10T10:23:11.011Z,102014.49
2019-01-10T10:25:41.288Z,102020.23
2019-01-10T10:28:11.202Z,102023.47
2019-01-10T10:30:41.171Z,102025.72
2019-01-10T10:33:11.631Z,102020.98
2019-01-10T10:35:41.666Z,102007.91
2019-01-10T10:38:11.589Z,102017.78
2019-01-10T10:40:41.540Z,102001.93
2019-01-10T10:43:11.475Z,102001.45
2019-01-10T10:45:41.454Z,102002.86
2019-01-10T10:48:13.540Z,102002.22
2019-01-10T10:50:43.085Z,102000.60
2019-01-10T10:53:13.268Z,102002.14
2019-01-10T10:55:43.384Z,102001.65
2019-01-10T10:58:13.448Z,101993.34
2019-01-10T11:00:44.110Z,102003.41
2019-01-10T11:03:15.247Z,101991.89
2019-01-10T11:05:45.676Z,102008.10
2019-01-10T11:08:15.696Z,101996.27
2019-01-10T11:10:45.988Z,101998.34
2019-01-10T11:13:16.298Z,101998.44
2019-01-10T11:15:46.379Z,101995.19
2019-01-10T11:18:16.810Z,102000.19
2019-01-10T11:20:47.217Z,101995.58
2019-01-10T11:23:17.885Z,101998.63
2019-01-10T11:25:48.696Z,101988.52
2019-01-10T11:28:18.604Z,101999.01
2019-01-10T11:30:48.811Z,101983.77
2019-01-10T11:33:18.799Z,101988.59
2019-01-10T11:35:48.844Z,101992.06
2019-01-10T11:38:18.774Z,101991.78
2019-01-10T11:40:48.737Z,101989.60
2019-01-10T11:43:18.714Z,101988.99
2019-01-10T11:45:48.878Z,101984.34
2019-01-10T11:48:18.820Z,101991.84
2019-01-10T11:50:49.310Z,101977.67
2019-01-10T11:53:19.244Z,101983.92
2019-01-10T11:55:49.472Z,101977.28
2019-01-10T11:58:19.454Z,101979.94
2019-01-10T12:00:49.450Z,101969.27
2019-01-10T12:03:19.458Z,101973.09
2019-01-10T12:05:53.121Z,101970.55
2019-01-10T12:08:23.512Z,101973.98
2019-01-10T12:10:53.842Z,101965.50
2019-01-10T12:13:23.827Z,101973.25
2019-01-10T12:15:53.782Z,101964.22
2019-01-10T12:18:24.101Z,101962.84
2019-01-10T12:20:54.000Z,101963.80
2019-01-10T12:23:24.000Z,101967.77
2019-01-10T12:25:54.012Z,101963.76
2019-01-10T12:28:23.938Z,101970.80
2019-01-10T12:30:54.065Z,101966.53
2019-01-10T12:33:24.166Z,101971.42
2019-01-10T12:35:54.084Z,101974.09
2019-01-10T12:38:23.986Z,101971.28
2019-01-10T12:40:54.022Z,101971.47
2019-01-10T12:43:24.145Z,101968.85
2019-01-10T12:45:54.135Z,101972.67
2019-01-10T12:48:24.234Z,101981.41
2019-01-10T12:50:54.398Z,101979.80
2019-01-10T12:53:24.589Z,101973.58
2019-01-10T12:55:54.797Z,101976.27
2019-01-10T12:58:24.656Z,101974.89
2019-01-10T13:00:54.561Z,101984.38
2019-01-10T13:03:24.478Z,101980.20
2019-01-10T13:05:54.373Z,101980.78
2019-01-10T13:08:24.360Z,101977.02
2019-01-10T13:10:54.270Z,101979.29
2019-01-10T13:13:24.257Z,101975.68
2019-01-10T13:15:54.639Z,101976.68
2019-01-10T13:18:25.449Z,101975.70
2019-01-10T13:20:56.388Z,101976.73
2019-01-10T13:23:27.203Z,101978.99
2019-01-10T13:25:59.785Z,101981.73
2019-01-10T13:28:30.656Z,101972.63
2019-01-10T13:31:02.022Z,101972.91
2019-01-10T13:33:32.226Z,101979.88
2019-01-10T13:36:02.309Z,101983.44
2019-01-10T13:38:34.699Z,101981.42
2019-01-10T13:41:06.701Z,101979.00
2019-01-10T13:43:38.543Z,101984.59
2019-01-10T13:46:09.810Z,101985.25
2019-01-10T13:48:42.042Z,101983.25
2019-01-10T13:51:13.412Z,101987.69
2019-01-10T13:53:44.442Z,101987.84
2019-01-10T13:56:14.894Z,101985.88
2019-01-10T13:58:45.014Z,101987.06
2019-01-10T14:01:15.073Z,101988.82
2019-01-10T14:03:45.033Z,101994.28
2019-01-10T14:06:15.260Z,101996.95
2019-01-10T14:08:45.150Z,101995.73
2019-01-10T14:11:16.343Z,102006.32
2019-01-10T14:13:46.788Z,102005.08
2019-01-10T14:16:16.773Z,102009.28
2019-01-10T14:18:48.010Z,102005.66
2019-01-10T14:21:18.627Z,102012.31
2019-01-10T14:23:49.167Z,102015.83
2019-01-10T14:26:20.087Z,102018.58
2019-01-10T14:28:50.134Z,102018.31
2019-01-10T14:31:20.185Z,102019.25
2019-01-10T14:33:50.650Z,102026.59
2019-01-10T14:36:21.585Z,102024.94
2019-01-10T14:38:52.137Z,102029.63
2019-01-10T14:41:22.799Z,102023.97
2019-01-10T14:43:53.339Z,102025.73
2019-01-10T14:46:23.910Z,102019.38
2019-01-10T14:48:54.808Z,102027.17
2019-01-10T14:51:25.116Z,102024.91
2019-01-10T14:53:55.127Z,102021.90
2019-01-10T14:56:25.487Z,102020.25
2019-01-10T14:58:55.888Z,102023.45
2019-01-10T15:01:29.902Z,102022.05
2019-01-10T15:04:03.208Z,102022.27
2019-01-10T15:06:33.182Z,102028.44
2019-01-10T15:09:03.105Z,102026.98
2019-01-10T15:11:33.326Z,102029.88
2019-01-10T15:14:03.217Z,102029.70
2019-01-10T15:16:33.646Z,102031.56
2019-01-10T15:19:03.631Z,102032.83
2019-01-10T15:21:33.666Z,102038.44
2019-01-10T15:24:04.488Z,102039.97
2019-01-10T15:26:36.549Z,102038.55
2019-01-10T15:29:07.022Z,102038.14
2019-01-10T15:31:37.822Z,102040.94
2019-01-10T15:34:07.998Z,102049.98
2019-01-10T15:36:38.129Z,102040.67
2019-01-10T15:39:09.081Z,102043.89
2019-01-10T15:41:39.248Z,102044.20
2019-01-10T15:44:09.166Z,102048.97
2019-01-10T15:46:39.931Z,102047.99
2019-01-10T15:49:10.480Z,102052.70
2019-01-10T15:51:42.118Z,102039.61
2019-01-10T15:54:11.975Z,102037.00
2019-01-10T15:56:44.554Z,102035.66
2019-01-10T15:59:14.872Z,102033.41
2019-01-10T16:01:45.245Z,102040.33
2019-01-10T16:04:15.740Z,102038.52
2019-01-10T16:06:47.627Z,102040.33
2019-01-10T16:09:17.782Z,102034.67
2019-01-10T16:11:48.731Z,102036.60
2019-01-10T16:14:19.991Z,102043.16
2019-01-10T16:16:50.200Z,102040.14
2019-01-10T16:19:21.242Z,102037.89
2019-01-10T16:21:51.820Z,102039.62
2019-01-10T16:24:23.166Z,102037.13
2019-01-10T16:26:55.077Z,102047.43
2019-01-10T16:29:25.028Z,102035.13
2019-01-10T16:31:55.114Z,102042.83
2019-01-10T16:34:25.016Z,102040.06
2019-01-10T16:36:54.890Z,102048.86
2019-01-10T16:39:24.830Z,102049.27
2019-01-10T16:41:56.239Z,102046.27
2019-01-10T16:44:27.158Z,102049.76
2019-01-10T16:47:00.419Z,102052.20
2019-01-10T16:49:31.813Z,102052.08
2019-01-10T16:52:02.597Z,102055.05
2019-01-10T16:54:32.509Z,102056.64
2019-01-10T16:57:03.023Z,102050.92
2019-01-10T16:59:33.259Z,102046.38
2019-01-10T17:02:04.190Z,102039.45
2019-01-10T17:04:34.510Z,102039.18
2019-01-10T17:07:05.556Z,102040.92
2019-01-10T17:09:35.912Z,102037.15
2019-01-10T17:12:06.890Z,102042.33
2019-01-10T17:14:36.847Z,102037.09
2019-01-10T17:17:09.290Z,102030.81
2019-01-10T17:19:44.291Z,102034.74
2019-01-10T17:22:15.360Z,102028.00
2019-01-10T17:24:46.479Z,102036.69
2019-01-10T17:27:16.516Z,102027.06
2019-01-10T17:29:47.871Z,102027.93
2019-01-10T17:32:19.252Z,102034.30
2019-01-10T17:34:49.158Z,102038.30
2019-01-10T17:37:22.130Z,102038.08
2019-01-10T17:39:53.501Z,102034.67
2019-01-10T17:42:25.226Z,102029.95
2019-01-10T17:44:56.436Z,102035.57
2019-01-10T17:47:28.360Z,102038.59
2019-01-10T17:49:58.929Z,102045.54
2019-01-10T17:52:28.810Z,102040.67
2019-01-10T17:54:59.084Z,102039.91
2019-01-10T17:57:29.012Z,102035.71
2019-01-10T17:59:58.971Z,102045.49
2019-01-10T18:02:28.826Z,102049.53
2019-01-10T18:04:58.735Z,102045.88
2019-01-10T18:07:28.633Z,102037.69
2019-01-10T18:09:58.554Z,102036.72
2019-01-10T18:12:28.518Z,102040.52
2019-01-10T18:14:58.477Z,102039.78
2019-01-10T18:17:29.032Z,102048.30
2019-01-10T18:19:58.951Z,102056.06
2019-01-10T18:22:29.110Z,102059.25
2019-01-10T18:24:59.506Z,102062.91
2019-01-10T18:27:29.423Z,102065.50
2019-01-10T18:29:59.316Z,102064.99
2019-01-10T18:32:29.458Z,102063.43
2019-01-10T18:34:59.634Z,102065.97
2019-01-10T18:37:29.543Z,102068.57
2019-01-10T18:39:59.491Z,102061.74
2019-01-10T18:42:29.416Z,102065.97
2019-01-10T18:44:59.526Z,102063.09
2019-01-10T18:47:29.683Z,102064.19
2019-01-10T18:49:59.798Z,102057.50
2019-01-10T18:52:29.690Z,102056.84
2019-01-10T18:55:00.398Z,102061.92
2019-01-10T18:57:30.426Z,102056.84
2019-01-10T19:00:00.548Z,102058.34
2019-01-10T19:02:30.702Z,102049.06
2019-01-10T19:05:01.117Z,102060.09
2019-01-10T19:07:31.018Z,102065.75
2019-01-10T19:10:00.945Z,102062.73
2019-01-10T19:12:30.829Z,102061.66
2019-01-10T19:15:00.762Z,102064.22
2019-01-10T19:17:30.646Z,102059.58
2019-01-10T19:20:00.576Z,102061.33
2019-01-10T19:22:30.677Z,102058.44
2019-01-10T19:25:00.613Z,102072.67
2019-01-10T19:27:31.015Z,102065.88
2019-01-10T19:30:01.393Z,102068.47
2019-01-10T19:32:32.173Z,102063.37
2019-01-10T19:35:03.237Z,102067.50
2019-01-10T19:37:34.036Z,102066.59
2019-01-10T19:40:05.358Z,102075.77
2019-01-10T19:42:36.834Z,102070.70
2019-01-10T19:45:09.385Z,102076.48
2019-01-10T19:47:40.596Z,102066.42
2019-01-10T19:50:16.388Z,102069.30
2019-01-10T19:52:47.840Z,102069.06
2019-01-10T19:55:19.625Z,102062.41
2019-01-10T19:57:50.034Z,102058.91
2019-01-10T20:00:37.179Z,102061.84
2019-01-10T20:03:08.278Z,102055.33
2019-01-10T20:05:38.408Z,102050.83
2019-01-10T20:08:08.771Z,102056.89
2019-01-10T20:10:39.333Z,102066.75
2019-01-10T20:13:10.131Z,102060.45
2019-01-10T20:15:40.997Z,102065.45
2019-01-10T20:18:16.089Z,102067.02
2019-01-10T20:20:44.367Z,102067.50
2019-01-10T20:23:28.603Z,102076.80
2019-01-10T20:25:58.597Z,102072.15
2019-01-10T20:28:29.276Z,102064.64
2019-01-10T20:31:00.154Z,102066.45
2019-01-10T20:33:30.661Z,102067.50
2019-01-10T20:36:01.066Z,102067.84
2019-01-10T20:38:31.936Z,102065.83
2019-01-10T20:41:05.629Z,102062.30
2019-01-10T20:43:35.585Z,102059.63
2019-01-10T20:46:05.721Z,102056.13
2019-01-10T20:48:35.687Z,102052.91
2019-01-10T20:51:05.807Z,102050.95
2019-01-10T20:53:35.741Z,102047.09
2019-01-10T20:56:05.766Z,102044.17
2019-01-10T20:58:35.996Z,102049.74
2019-01-10T21:01:06.134Z,102045.47
2019-01-10T21:03:36.203Z,102049.45
2019-01-10T21:06:06.501Z,102047.53
2019-01-10T21:08:36.548Z,102045.33
2019-01-10T21:11:06.721Z,102046.38
2019-01-10T21:13:38.009Z,102047.10
2019-01-10T21:16:09.450Z,102039.91
2019-01-10T21:18:40.734Z,102047.49
2019-01-10T21:21:11.998Z,102049.30
2019-01-10T21:23:43.241Z,102047.49
2019-01-10T21:26:17.172Z,102053.92
2019-01-10T21:28:48.071Z,102046.91
2019-01-10T21:31:19.890Z,102045.17
2019-01-10T21:33:51.340Z,102051.13
2019-01-10T21:36:22.413Z,102047.72
2019-01-10T21:38:53.443Z,102049.30
2019-01-10T21:41:24.799Z,102043.25
2019-01-10T21:43:56.238Z,102044.71
2019-01-10T21:46:28.465Z,102040.41
2019-01-10T21:48:58.489Z,102040.88
2019-01-10T21:51:28.775Z,102042.11
2019-01-10T21:53:59.875Z,102044.07
2019-01-10T21:56:32.145Z,102039.08
2019-01-10T21:59:02.733Z,102035.38
2019-01-10T22:01:33.572Z,102029.44
2019-01-10T22:04:04.278Z,102034.20
2019-01-10T22:06:40.055Z,102030.72
2019-01-10T22:09:17.467Z,102034.11
2019-01-10T22:11:49.043Z,102028.53
2019-01-10T22:14:22.858Z,102026.18
2019-01-10T22:16:53.431Z,102025.07
2019-01-10T22:19:23.938Z,102022.80
2019-01-10T22:21:55.032Z,102026.38
2019-01-10T22:24:25.178Z,102021.22
2019-01-10T22:26:55.853Z,102021.08
2019-01-10T22:29:38.626Z,102022.83
2019-01-10T22:32:09.367Z,102022.98
2019-01-10T22:34:41.421Z,102025.21
2019-01-10T22:37:32.104Z,102020.94
2019-01-10T22:40:01.171Z,102017.99
2019-01-10T22:42:35.518Z,102012.21
2019-01-10T22:45:06.442Z,102018.39
2019-01-10T22:47:37.594Z,102011.55
2019-01-10T22:50:10.527Z,102009.59
2019-01-10T22:52:41.300Z,102006.64
2019-01-10T22:55:13.761Z,102005.91
2019-01-10T22:58:03.826Z,102002.16
2019-01-10T23:01:49.221Z,101996.51
2019-01-10T23:04:43.958Z,102002.55
2019-01-10T23:07:39.476Z,101998.86
2019-01-10T23:10:50.151Z,101998.74
2019-01-10T23:13:20.361Z,101997.30
2019-01-10T23:15:51.058Z,101995.25
2019-01-10T23:18:22.920Z,101995.20
2019-01-10T23:21:18.521Z,101992.22
2019-01-10T23:23:52.239Z,101990.27
2019-01-10T23:26:22.515Z,101985.19
2019-01-10T23:28:53.930Z,101991.42
2019-01-10T23:31:24.317Z,101985.38
2019-01-10T23:33:57.116Z,101982.39
2019-01-10T23:36:28.158Z,101982.98
2019-01-10T23:39:19.708Z,101980.73
2019-01-10T23:41:50.654Z,101976.63
2019-01-10T23:44:20.800Z,101973.48
2019-01-10T23:46:50.763Z,101975.50
2019-01-10T23:49:22.257Z,101969.31
2019-01-10T23:51:53.792Z,101971.91
2019-01-10T23:54:24.757Z,101965.81
2019-01-10T23:56:56.586Z,101965.86
2019-01-10T23:59:28.304Z,101965.45
